Time;durP1;ratioP1;P1;durP2;ratioP2;P2;SDS_P1;SDS_P2;PMS_P1;PMS_P2;Temp;Humidity;BMP_temperature;BMP_pressure;BME280_temperature;BME280_humidity;BME280_pressure;Samples;Min_cycle;Max_cycle;Signal;HPM_P1;HPM_P2
2022/12/03 00:01:15;;;;;;;39.63;20.48;;;;;;;;;;5122085;27;20050;-73
2022/12/03 00:03:41;;;;;;;37.35;21.60;;;;;;;;;;5122198;27;20060;-72
2022/12/03 00:06:07;;;;;;;37.15;20.42;;;;;;;;;;5119232;27;20047;-72
2022/12/03 00:08:33;;;;;;;39.40;19.98;;;;;;;;;;5117830;27;20048;-73
2022/12/03 00:10:59;;;;;;;37.63;21.00;;;;;;;;;;5133596;27;20055;-73
2022/12/03 00:13:25;;;;;;;39.55;20.90;;;;;;;;;;5134422;27;20047;-73
2022/12/03 00:15:51;;;;;;;37.78;20.23;;;;;;;;;;5134232;27;20039;-73
2022/12/03 00:18:17;;;;;;;39.03;20.85;;;;;;;;;;5134559;27;20039;-73
2022/12/03 00:20:43;;;;;;;36.10;20.23;;;;;;;;;;5131631;27;20043;-73
2022/12/03 00:23:09;;;;;;;39.00;20.55;;;;;;;;;;5114150;28;20054;-73
2022/12/03 00:25:35;;;;;;;40.17;20.67;;;;;;;;;;5113988;28;20047;-73
2022/12/03 00:28:01;;;;;;;36.40;20.92;;;;;;;;;;5113903;28;20048;-73
2022/12/03 00:30:27;;;;;;;38.35;20.67;;;;;;;;;;5123275;27;20408;-73
2022/12/03 00:32:53;;;;;;;36.25;20.00;;;;;;;;;;5134546;27;20043;-73
2022/12/03 00:35:19;;;;;;;37.90;21.77;;;;;;;;;;5133350;27;20100;-73
2022/12/03 00:37:45;;;;;;;39.08;21.95;;;;;;;;;;5130663;27;20050;-73
2022/12/03 00:40:12;;;;;;;39.95;20.85;;;;;;;;;;5119954;27;20054;-72
2022/12/03 00:42:38;;;;;;;41.83;23.65;;;;;;;;;;5121302;27;20047;-72
2022/12/03 00:45:04;;;;;;;39.45;22.88;;;;;;;;;;5107091;27;20096;-72
2022/12/03 00:47:30;;;;;;;37.53;21.50;;;;;;;;;;5119914;27;20039;-72
2022/12/03 00:49:56;;;;;;;30.23;16.27;;;;;;;;;;5121753;27;20181;-72
2022/12/03 00:52:22;;;;;;;39.38;20.75;;;;;;;;;;5119187;27;20039;-73
2022/12/03 00:54:48;;;;;;;36.22;21.02;;;;;;;;;;5119416;27;20039;-72
2022/12/03 00:57:14;;;;;;;37.22;20.30;;;;;;;;;;5119951;27;20047;-72
2022/12/03 00:59:40;;;;;;;39.65;22.10;;;;;;;;;;5100871;27;20051;-72
2022/12/03 01:02:06;;;;;;;32.90;20.25;;;;;;;;;;5121349;27;20486;-73
2022/12/03 01:04:32;;;;;;;38.22;22.90;;;;;;;;;;5120799;27;20055;-72
2022/12/03 01:06:59;;;;;;;35.35;21.10;;;;;;;;;;5117727;27;20077;-72
2022/12/03 01:09:25;;;;;;;34.03;19.88;;;;;;;;;;5121580;27;20039;-72
2022/12/03 01:11:51;;;;;;;33.63;20.67;;;;;;;;;;5120070;27;20071;-72
2022/12/03 01:14:18;;;;;;;33.65;20.67;;;;;;;;;;5122799;27;20409;-72
2022/12/03 01:16:45;;;;;;;31.92;18.58;;;;;;;;;;5118386;27;20043;-72
2022/12/03 01:19:14;;;;;;;31.45;19.45;;;;;;;;;;5131590;27;20047;-72
2022/12/03 01:21:41;;;;;;;29.08;18.27;;;;;;;;;;5110024;28;20504;-73
2022/12/03 01:24:07;;;;;;;31.00;19.48;;;;;;;;;;5113444;28;20044;-73
2022/12/03 01:26:33;;;;;;;28.15;18.48;;;;;;;;;;5124904;28;20079;-72
2022/12/03 01:28:59;;;;;;;26.60;16.35;;;;;;;;;;5132273;28;20489;-73
2022/12/03 01:34:10;;;;;;;28.67;17.83;;;;;;;;;;5132738;28;20043;-72
2022/12/03 01:36:36;;;;;;;28.95;18.10;;;;;;;;;;5113317;28;20047;-73
2022/12/03 01:39:03;;;;;;;31.30;19.15;;;;;;;;;;5116043;28;20485;-72
2022/12/03 01:41:31;;;;;;;32.65;19.15;;;;;;;;;;5133655;28;20413;-73
2022/12/03 01:43:57;;;;;;;31.13;19.80;;;;;;;;;;5133041;28;20498;-73
2022/12/03 01:46:25;;;;;;;32.00;19.13;;;;;;;;;;5109103;28;20172;-72
2022/12/03 01:48:52;;;;;;;31.23;19.85;;;;;;;;;;5120455;28;20405;-72
2022/12/03 01:51:18;;;;;;;34.60;20.95;;;;;;;;;;5120279;28;20481;-72
2022/12/03 01:53:44;;;;;;;31.65;20.10;;;;;;;;;;5102962;28;21482;-72
2022/12/03 01:56:13;;;;;;;30.58;19.35;;;;;;;;;;5119057;28;20052;-72
2022/12/03 01:58:39;;;;;;;32.63;20.55;;;;;;;;;;5120158;28;20103;-72
2022/12/03 02:01:12;;;;;;;31.23;20.30;;;;;;;;;;5118463;28;20074;-73
2022/12/03 02:03:39;;;;;;;33.33;20.40;;;;;;;;;;5120280;28;20048;-73
2022/12/03 02:06:06;;;;;;;33.88;20.52;;;;;;;;;;5118343;28;20436;-72
2022/12/03 02:08:36;;;;;;;35.53;21.15;;;;;;;;;;5124194;28;20133;-72
2022/12/03 02:11:08;;;;;;;30.55;19.15;;;;;;;;;;5119013;28;20076;-72
2022/12/03 02:13:34;;;;;;;33.70;20.20;;;;;;;;;;5122342;28;20054;-72
2022/12/03 02:16:00;;;;;;;30.23;17.58;;;;;;;;;;5120447;28;20047;-72
2022/12/03 02:18:26;;;;;;;31.38;20.67;;;;;;;;;;5132807;28;20039;-72
2022/12/03 02:20:57;;;;;;;31.20;19.90;;;;;;;;;;5120489;28;20069;-73
2022/12/03 02:23:29;;;;;;;33.10;21.08;;;;;;;;;;5112085;28;20501;-73
2022/12/03 02:25:55;;;;;;;32.47;18.27;;;;;;;;;;5133269;28;20058;-72
2022/12/03 02:28:21;;;;;;;33.53;19.95;;;;;;;;;;5133059;28;20100;-73
2022/12/03 02:30:47;;;;;;;32.83;20.02;;;;;;;;;;5133110;27;20130;-73
2022/12/03 02:33:13;;;;;;;32.70;20.40;;;;;;;;;;5135269;27;20050;-73
2022/12/03 02:35:39;;;;;;;32.17;18.98;;;;;;;;;;5134378;27;20046;-73
2022/12/03 02:38:11;;;;;;;32.10;20.60;;;;;;;;;;5121752;27;20035;-73
2022/12/03 02:40:37;;;;;;;33.45;20.42;;;;;;;;;;5116199;28;20039;-73
2022/12/03 02:43:04;;;;;;;32.05;20.08;;;;;;;;;;5115888;28;20036;-73
2022/12/03 02:45:31;;;;;;;31.55;20.38;;;;;;;;;;5116109;28;20043;-73
2022/12/03 02:48:02;;;;;;;31.55;19.50;;;;;;;;;;5123983;27;20508;-72
2022/12/03 02:50:29;;;;;;;30.80;19.98;;;;;;;;;;5122419;27;20046;-72
2022/12/03 02:52:58;;;;;;;32.15;20.20;;;;;;;;;;5121549;27;20054;-72
2022/12/03 02:55:24;;;;;;;33.92;19.65;;;;;;;;;;5122973;27;20054;-72
2022/12/03 02:57:51;;;;;;;28.25;18.58;;;;;;;;;;5119470;27;20100;-72
2022/12/03 03:00:18;;;;;;;30.75;18.70;;;;;;;;;;5121687;27;20062;-73
2022/12/03 03:02:45;;;;;;;32.85;19.73;;;;;;;;;;5121044;27;20058;-73
2022/12/03 03:05:11;;;;;;;31.58;20.15;;;;;;;;;;5121057;27;20091;-72
2022/12/03 03:07:38;;;;;;;29.70;19.10;;;;;;;;;;5122159;27;20812;-72
2022/12/03 03:10:05;;;;;;;30.95;19.52;;;;;;;;;;5121226;27;20039;-73
2022/12/03 03:12:31;;;;;;;30.83;19.70;;;;;;;;;;5123970;27;20046;-72
2022/12/03 03:14:57;;;;;;;30.52;18.35;;;;;;;;;;5103788;27;20451;-72
2022/12/03 03:17:23;;;;;;;30.75;18.35;;;;;;;;;;5120924;27;20051;-72
2022/12/03 03:19:49;;;;;;;31.90;18.85;;;;;;;;;;5124380;27;20393;-73
2022/12/03 03:22:16;;;;;;;30.42;17.92;;;;;;;;;;5135988;27;20047;-73
2022/12/03 03:24:42;;;;;;;29.88;19.60;;;;;;;;;;5130532;27;20039;-72
2022/12/03 03:27:08;;;;;;;30.70;19.85;;;;;;;;;;5134644;27;20058;-73
2022/12/03 03:29:34;;;;;;;31.77;20.17;;;;;;;;;;5135226;27;20035;-73
2022/12/03 03:32:01;;;;;;;30.95;19.55;;;;;;;;;;5133633;27;20505;-73
2022/12/03 03:34:27;;;;;;;29.05;19.27;;;;;;;;;;5135307;27;20035;-73
2022/12/03 03:36:53;;;;;;;32.78;18.75;;;;;;;;;;5134877;27;20494;-73
2022/12/03 03:39:19;;;;;;;28.80;17.17;;;;;;;;;;5134268;27;20035;-72
2022/12/03 03:41:46;;;;;;;32.03;19.75;;;;;;;;;;5134585;27;20450;-73
2022/12/03 03:44:12;;;;;;;31.33;20.85;;;;;;;;;;5134507;27;20557;-73
2022/12/03 03:46:39;;;;;;;30.65;19.35;;;;;;;;;;5133833;27;20497;-72
2022/12/03 03:49:05;;;;;;;30.52;19.58;;;;;;;;;;5134043;27;20071;-72
2022/12/03 03:51:33;;;;;;;30.05;18.13;;;;;;;;;;5134647;27;20162;-73
2022/12/03 03:54:00;;;;;;;32.85;18.17;;;;;;;;;;5134166;27;20043;-73
2022/12/03 03:56:26;;;;;;;32.58;19.52;;;;;;;;;;5133970;27;20493;-72
2022/12/03 03:58:52;;;;;;;31.02;18.48;;;;;;;;;;5132495;27;20386;-72
2022/12/03 04:01:18;;;;;;;30.60;19.95;;;;;;;;;;5131851;27;20043;-73
2022/12/03 04:03:44;;;;;;;33.38;19.63;;;;;;;;;;5126533;27;20082;-72
2022/12/03 04:06:10;;;;;;;30.40;18.52;;;;;;;;;;5129814;27;20068;-72
2022/12/03 04:08:36;;;;;;;31.65;18.65;;;;;;;;;;5132588;27;20060;-73
2022/12/03 04:13:47;;;;;;;30.10;18.25;;;;;;;;;;5127830;27;20054;-72
2022/12/03 04:16:13;;;;;;;30.95;19.02;;;;;;;;;;5119327;27;20049;-73
2022/12/03 04:18:42;;;;;;;31.52;19.73;;;;;;;;;;5125591;27;20050;-72
2022/12/03 04:23:54;;;;;;;28.58;17.95;;;;;;;;;;5132172;27;20054;-72
2022/12/03 04:29:05;;;;;;;31.45;18.23;;;;;;;;;;5131757;27;20043;-72
2022/12/03 04:37:01;;;;;;;28.65;18.45;;;;;;;;;;5119870;27;20051;-72
2022/12/03 04:39:27;;;;;;;29.67;18.30;;;;;;;;;;5102508;27;20096;-72
2022/12/03 04:41:53;;;;;;;33.08;19.23;;;;;;;;;;5121247;27;20408;-72
2022/12/03 04:44:37;;;;;;;28.75;18.85;;;;;;;;;;5120834;27;20111;-72
2022/12/03 04:47:03;;;;;;;31.55;19.23;;;;;;;;;;5121468;27;20031;-72
2022/12/03 04:49:29;;;;;;;31.23;18.88;;;;;;;;;;5120183;27;20425;-73
2022/12/03 04:51:56;;;;;;;26.83;16.17;;;;;;;;;;5118282;27;20104;-72
2022/12/03 04:54:22;;;;;;;30.55;21.00;;;;;;;;;;5120839;27;20039;-72
2022/12/03 04:56:48;;;;;;;30.60;19.23;;;;;;;;;;5121203;27;20137;-73
2022/12/03 04:59:14;;;;;;;32.00;19.05;;;;;;;;;;5120475;27;20092;-72
2022/12/03 05:01:40;;;;;;;30.30;18.30;;;;;;;;;;5121586;27;20043;-72
2022/12/03 05:04:07;;;;;;;31.50;19.55;;;;;;;;;;5117995;27;20143;-72
2022/12/03 05:06:33;;;;;;;31.65;19.98;;;;;;;;;;5119772;27;20417;-72
2022/12/03 05:08:59;;;;;;;31.80;19.63;;;;;;;;;;5118969;27;20043;-73
2022/12/03 05:11:25;;;;;;;29.35;18.15;;;;;;;;;;5116646;27;20051;-72
2022/12/03 05:13:51;;;;;;;30.05;19.45;;;;;;;;;;5119965;27;20383;-72
2022/12/03 05:16:17;;;;;;;31.85;17.67;;;;;;;;;;5120385;27;20397;-72
2022/12/03 05:18:43;;;;;;;32.50;18.70;;;;;;;;;;5101592;28;20115;-72
2022/12/03 05:21:10;;;;;;;31.27;20.15;;;;;;;;;;5130467;28;20054;-72
2022/12/03 05:23:36;;;;;;;29.75;18.63;;;;;;;;;;5133664;28;20031;-73
2022/12/03 05:26:02;;;;;;;32.10;19.52;;;;;;;;;;5133901;28;20401;-73
2022/12/03 05:28:28;;;;;;;30.88;19.77;;;;;;;;;;5115570;28;20044;-73
2022/12/03 05:30:54;;;;;;;30.70;17.25;;;;;;;;;;5095001;28;20047;-73
2022/12/03 05:33:20;;;;;;;30.05;18.27;;;;;;;;;;5094959;28;20115;-73
2022/12/03 05:35:47;;;;;;;30.52;19.20;;;;;;;;;;5125702;28;20040;-73
2022/12/03 05:38:13;;;;;;;29.80;18.45;;;;;;;;;;5133771;28;20047;-73
2022/12/03 05:40:39;;;;;;;30.75;19.35;;;;;;;;;;5133262;28;20039;-73
2022/12/03 05:43:05;;;;;;;32.97;20.33;;;;;;;;;;5132630;28;20047;-73
2022/12/03 05:45:33;;;;;;;32.97;21.15;;;;;;;;;;5097434;28;20096;-72
2022/12/03 05:47:59;;;;;;;31.38;18.25;;;;;;;;;;5131642;28;20122;-72
2022/12/03 05:50:27;;;;;;;33.40;20.13;;;;;;;;;;5119087;28;20412;-72
2022/12/03 05:52:53;;;;;;;31.20;19.80;;;;;;;;;;5119255;28;20039;-72
2022/12/03 05:55:19;;;;;;;31.08;18.92;;;;;;;;;;5119555;28;20504;-73
2022/12/03 05:57:46;;;;;;;32.90;19.42;;;;;;;;;;5119528;28;20524;-73
2022/12/03 06:00:13;;;;;;;34.38;19.80;;;;;;;;;;5120828;28;20039;-72
2022/12/03 06:02:39;;;;;;;31.70;19.23;;;;;;;;;;5118111;28;20116;-72
2022/12/03 06:05:06;;;;;;;32.50;19.98;;;;;;;;;;5118775;28;20467;-72
2022/12/03 06:07:32;;;;;;;31.00;19.20;;;;;;;;;;5123755;27;20036;-73
2022/12/03 06:09:58;;;;;;;29.80;18.92;;;;;;;;;;5122166;27;20054;-73
2022/12/03 06:12:24;;;;;;;31.63;18.80;;;;;;;;;;5123472;27;20047;-73
2022/12/03 06:14:51;;;;;;;31.45;19.45;;;;;;;;;;5124249;27;20043;-72
2022/12/03 06:17:17;;;;;;;31.88;20.23;;;;;;;;;;5124883;27;20401;-72
2022/12/03 06:19:43;;;;;;;29.77;19.50;;;;;;;;;;5121865;27;20409;-72
2022/12/03 06:22:09;;;;;;;30.08;19.27;;;;;;;;;;5120636;27;20039;-72
2022/12/03 06:24:35;;;;;;;33.88;19.63;;;;;;;;;;5123259;27;20052;-73
2022/12/03 06:27:01;;;;;;;31.08;19.48;;;;;;;;;;5123213;27;20039;-72
2022/12/03 06:29:27;;;;;;;38.53;20.05;;;;;;;;;;5122550;27;20050;-72
2022/12/03 06:31:53;;;;;;;39.42;21.65;;;;;;;;;;5122780;27;20054;-72
2022/12/03 06:34:19;;;;;;;42.88;22.45;;;;;;;;;;5111765;27;20043;-72
2022/12/03 06:36:45;;;;;;;36.92;21.83;;;;;;;;;;5122333;27;20042;-72
2022/12/03 06:39:12;;;;;;;39.60;21.15;;;;;;;;;;5121919;27;20412;-72
2022/12/03 06:41:38;;;;;;;38.10;21.95;;;;;;;;;;5123322;27;20050;-73
2022/12/03 06:44:04;;;;;;;40.33;23.08;;;;;;;;;;5119104;27;20059;-72
2022/12/03 06:46:30;;;;;;;37.35;21.55;;;;;;;;;;5120454;27;20048;-72
2022/12/03 06:48:56;;;;;;;40.70;23.20;;;;;;;;;;5123065;27;20039;-73
2022/12/03 06:51:22;;;;;;;41.20;23.42;;;;;;;;;;5121521;27;20039;-72
2022/12/03 06:53:48;;;;;;;37.33;22.10;;;;;;;;;;5121945;27;20043;-72
2022/12/03 06:56:14;;;;;;;37.72;22.38;;;;;;;;;;5123027;27;20757;-72
2022/12/03 06:58:40;;;;;;;39.08;22.63;;;;;;;;;;5121989;27;20493;-72
2022/12/03 07:01:06;;;;;;;36.15;21.45;;;;;;;;;;5122030;27;20488;-72
2022/12/03 07:03:32;;;;;;;38.60;22.40;;;;;;;;;;5120493;27;20475;-73
2022/12/03 07:05:58;;;;;;;40.67;23.10;;;;;;;;;;5121149;27;20058;-73
2022/12/03 07:08:24;;;;;;;46.97;27.00;;;;;;;;;;5122911;27;20097;-72
2022/12/03 07:10:50;;;;;;;45.30;25.60;;;;;;;;;;5123246;27;20031;-72
2022/12/03 07:13:16;;;;;;;53.15;29.52;;;;;;;;;;5123060;27;20035;-72
2022/12/03 07:15:42;;;;;;;49.03;28.05;;;;;;;;;;5120935;27;20035;-72
2022/12/03 07:18:08;;;;;;;46.30;27.90;;;;;;;;;;5120492;27;20095;-72
2022/12/03 07:20:34;;;;;;;47.20;28.40;;;;;;;;;;5121539;27;20050;-72
2022/12/03 07:23:00;;;;;;;44.85;27.48;;;;;;;;;;5128193;27;20062;-73
2022/12/03 07:25:27;;;;;;;48.50;27.98;;;;;;;;;;5135266;27;20047;-72
2022/12/03 07:27:53;;;;;;;45.85;25.92;;;;;;;;;;5135819;27;20061;-73
2022/12/03 07:30:20;;;;;;;47.85;28.83;;;;;;;;;;5135528;27;20467;-73
2022/12/03 07:32:46;;;;;;;49.97;30.10;;;;;;;;;;5135812;27;20035;-73
2022/12/03 07:35:13;;;;;;;44.35;27.33;;;;;;;;;;5125576;27;20513;-73
2022/12/03 07:37:39;;;;;;;49.75;28.80;;;;;;;;;;5133641;27;20047;-73
2022/12/03 07:40:05;;;;;;;47.60;28.50;;;;;;;;;;5134549;27;20043;-73
2022/12/03 07:42:31;;;;;;;52.25;29.23;;;;;;;;;;5133732;27;20039;-72
2022/12/03 07:44:57;;;;;;;52.08;28.98;;;;;;;;;;5106873;27;20043;-73
2022/12/03 07:47:23;;;;;;;53.22;28.13;;;;;;;;;;5127919;27;20046;-73
2022/12/03 07:49:49;;;;;;;50.22;28.60;;;;;;;;;;5131401;27;20039;-72
2022/12/03 07:52:15;;;;;;;55.70;27.30;;;;;;;;;;5132702;27;20039;-73
2022/12/03 07:54:41;;;;;;;50.20;26.90;;;;;;;;;;5134224;27;20432;-73
2022/12/03 07:57:07;;;;;;;51.63;26.13;;;;;;;;;;5134495;27;20107;-73
2022/12/03 07:59:33;;;;;;;49.72;29.02;;;;;;;;;;5134287;27;20039;-72
2022/12/03 08:01:59;;;;;;;49.15;27.02;;;;;;;;;;5133411;27;20043;-73
2022/12/03 08:04:25;;;;;;;48.78;26.90;;;;;;;;;;5126214;27;20156;-73
2022/12/03 08:06:51;;;;;;;50.78;29.08;;;;;;;;;;5122068;27;20502;-72
2022/12/03 08:09:17;;;;;;;49.38;27.77;;;;;;;;;;5113507;28;20039;-73
2022/12/03 08:11:47;;;;;;;53.40;26.98;;;;;;;;;;5114187;27;20526;-73
2022/12/03 08:14:14;;;;;;;53.58;30.55;;;;;;;;;;5124050;27;20039;-73
2022/12/03 08:16:40;;;;;;;48.38;27.38;;;;;;;;;;5118513;27;20047;-73
2022/12/03 08:19:14;;;;;;;52.10;29.65;;;;;;;;;;5128329;27;20046;-73
2022/12/03 08:21:40;;;;;;;50.53;28.15;;;;;;;;;;5130155;27;20036;-72
2022/12/03 08:24:14;;;;;;;49.47;27.00;;;;;;;;;;5115319;27;20043;-73
2022/12/03 08:26:43;;;;;;;45.03;24.23;;;;;;;;;;5121813;27;20509;-73
2022/12/03 08:29:10;;;;;;;52.22;28.52;;;;;;;;;;5112827;28;20447;-73
2022/12/03 08:31:36;;;;;;;52.10;28.10;;;;;;;;;;5124310;27;20039;-73
2022/12/03 08:34:22;;;;;;;49.42;28.00;;;;;;;;;;5125883;27;20043;-73
2022/12/03 08:36:50;;;;;;;51.08;27.08;;;;;;;;;;5118991;27;20052;-73
2022/12/03 08:39:28;;;;;;;49.55;27.75;;;;;;;;;;5117072;27;20040;-73
2022/12/03 08:42:56;;;;;;;50.47;27.13;;;;;;;;;;5113262;28;20151;-73
2022/12/03 08:44:51;;;;;;;48.92;26.73;;;;;;;;;;5110338;27;20043;-73
2022/12/03 08:47:22;;;;;;;49.60;27.48;;;;;;;;;;5133443;27;20051;-73
2022/12/03 08:49:56;;;;;;;44.30;24.98;;;;;;;;;;5133352;27;20489;-72
2022/12/03 08:52:26;;;;;;;49.00;28.38;;;;;;;;;;5133448;27;20066;-73
2022/12/03 08:54:53;;;;;;;48.60;26.70;;;;;;;;;;5132983;27;20049;-73
2022/12/03 08:57:19;;;;;;;48.20;27.67;;;;;;;;;;5131640;27;20046;-73
2022/12/03 08:59:46;;;;;;;64.18;32.97;;;;;;;;;;5115319;27;20426;-73
2022/12/03 09:02:16;;;;;;;52.65;27.55;;;;;;;;;;5125606;27;20043;-73
2022/12/03 09:04:46;;;;;;;46.45;27.02;;;;;;;;;;5132013;27;20050;-73
2022/12/03 09:07:12;;;;;;;47.83;27.40;;;;;;;;;;5117601;27;20044;-73
2022/12/03 09:09:38;;;;;;;52.55;29.48;;;;;;;;;;5113216;28;20402;-73
2022/12/03 09:12:04;;;;;;;49.90;27.05;;;;;;;;;;5112556;28;20419;-73
2022/12/03 09:14:30;;;;;;;50.22;28.25;;;;;;;;;;5117761;28;20043;-72
2022/12/03 09:16:56;;;;;;;47.13;27.95;;;;;;;;;;5133150;27;20054;-73
2022/12/03 09:19:23;;;;;;;48.75;28.10;;;;;;;;;;5131821;27;20637;-73
2022/12/03 09:21:50;;;;;;;56.05;29.48;;;;;;;;;;5121245;27;20068;-73
2022/12/03 09:24:16;;;;;;;49.75;28.23;;;;;;;;;;5131178;28;20168;-73
2022/12/03 09:26:42;;;;;;;53.83;31.30;;;;;;;;;;5130284;28;20046;-73
2022/12/03 09:29:08;;;;;;;51.17;31.45;;;;;;;;;;5130061;28;20507;-73
2022/12/03 09:31:34;;;;;;;46.83;26.98;;;;;;;;;;5131958;28;20035;-72
2022/12/03 09:34:01;;;;;;;46.25;28.25;;;;;;;;;;5127879;28;20043;-73
2022/12/03 09:36:27;;;;;;;50.42;29.30;;;;;;;;;;5125525;28;20035;-72
2022/12/03 09:38:53;;;;;;;54.40;30.92;;;;;;;;;;5130499;28;20071;-73
2022/12/03 09:41:19;;;;;;;46.75;26.48;;;;;;;;;;5133070;27;20046;-73
2022/12/03 09:43:46;;;;;;;48.20;29.15;;;;;;;;;;5124216;27;20118;-73
2022/12/03 09:46:13;;;;;;;50.67;29.30;;;;;;;;;;5122824;27;20366;-73
2022/12/03 09:48:39;;;;;;;46.00;27.83;;;;;;;;;;5126275;27;20036;-73
2022/12/03 09:51:06;;;;;;;45.08;25.90;;;;;;;;;;5130951;27;20039;-73
2022/12/03 09:53:33;;;;;;;48.92;28.65;;;;;;;;;;5136161;27;20633;-73
2022/12/03 09:55:59;;;;;;;48.55;27.15;;;;;;;;;;5129894;27;20054;-72
2022/12/03 09:58:26;;;;;;;47.08;27.90;;;;;;;;;;5136945;27;20043;-73
2022/12/03 10:00:52;;;;;;;99.80;66.20;;;;;;;;;;5134010;27;20091;-73
2022/12/03 10:03:23;;;;;;;46.80;26.85;;;;;;;;;;5133325;27;20051;-73
2022/12/03 10:05:49;;;;;;;51.27;28.93;;;;;;;;;;5136387;27;20069;-73
2022/12/03 10:08:19;;;;;;;45.22;28.02;;;;;;;;;;5107995;28;20308;-73
2022/12/03 10:10:45;;;;;;;49.08;28.50;;;;;;;;;;5127671;27;20044;-73
2022/12/03 10:13:12;;;;;;;53.13;31.58;;;;;;;;;;5134737;27;20092;-72
2022/12/03 10:15:38;;;;;;;45.83;26.65;;;;;;;;;;5118819;27;20040;-73
2022/12/03 10:18:34;;;;;;;48.38;28.00;;;;;;;;;;5135116;27;20116;-73
2022/12/03 10:21:00;;;;;;;48.80;28.98;;;;;;;;;;5103139;27;20048;-73
2022/12/03 10:23:27;;;;;;;49.88;28.10;;;;;;;;;;5134625;27;20502;-73
2022/12/03 10:26:01;;;;;;;53.28;30.80;;;;;;;;;;5108567;28;20118;-72
2022/12/03 10:28:33;;;;;;;53.88;30.10;;;;;;;;;;5108024;27;20043;-73
2022/12/03 10:30:59;;;;;;;;;;;;;;;;;;5116823;27;20085;-73
2022/12/03 10:33:29;;;;;;;52.38;29.80;;;;;;;;;;5133072;27;19962;-73
2022/12/03 10:35:55;;;;;;;46.30;27.40;;;;;;;;;;5134670;27;20509;-73
2022/12/03 10:38:22;;;;;;;49.00;28.05;;;;;;;;;;5134973;27;20378;-73
2022/12/03 10:40:48;;;;;;;51.47;27.58;;;;;;;;;;5134850;27;20039;-72
2022/12/03 10:43:17;;;;;;;47.15;28.65;;;;;;;;;;5133602;27;20118;-73
2022/12/03 10:45:44;;;;;;;51.33;30.23;;;;;;;;;;5118799;27;20455;-72
2022/12/03 10:48:14;;;;;;;45.72;27.25;;;;;;;;;;5124450;27;20091;-73
2022/12/03 10:50:54;;;;;;;48.60;29.67;;;;;;;;;;5126186;27;20129;-73
2022/12/03 10:53:21;;;;;;;43.83;26.20;;;;;;;;;;5132519;27;20096;-73
2022/12/03 10:55:50;;;;;;;46.88;28.35;;;;;;;;;;5125029;27;20044;-73
2022/12/03 10:58:23;;;;;;;47.20;26.38;;;;;;;;;;5135275;27;20070;-73
2022/12/03 11:00:51;;;;;;;47.50;27.75;;;;;;;;;;5134885;27;20083;-73
2022/12/03 11:03:19;;;;;;;47.28;28.38;;;;;;;;;;5132886;27;21056;-72
2022/12/03 11:05:45;;;;;;;47.75;29.02;;;;;;;;;;5127582;27;20051;-73
2022/12/03 11:08:22;;;;;;;47.60;28.90;;;;;;;;;;5129033;27;20039;-73
2022/12/03 11:10:55;;;;;;;51.13;30.92;;;;;;;;;;5130145;27;20046;-73
2022/12/03 11:13:34;;;;;;;55.83;32.08;;;;;;;;;;5134408;27;20079;-72
2022/12/03 11:16:00;;;;;;;45.60;27.58;;;;;;;;;;5134631;27;20051;-73
2022/12/03 11:18:35;;;;;;;55.90;31.92;;;;;;;;;;5134288;27;20131;-73
2022/12/03 11:21:08;;;;;;;46.97;27.80;;;;;;;;;;5131558;27;20089;-73
2022/12/03 11:23:46;;;;;;;47.47;28.25;;;;;;;;;;5111498;27;20213;-73
2022/12/03 11:26:12;;;;;;;50.00;29.30;;;;;;;;;;5130729;27;20055;-73
2022/12/03 11:28:54;;;;;;;50.10;29.83;;;;;;;;;;5090402;27;20039;-72
2022/12/03 11:31:37;;;;;;;50.10;30.98;;;;;;;;;;5139108;27;20110;-73
2022/12/03 11:34:16;;;;;;;44.92;27.08;;;;;;;;;;5131086;27;20122;-73
2022/12/03 11:37:00;;;;;;;47.30;28.58;;;;;;;;;;5119248;27;20103;-73
2022/12/03 11:39:44;;;;;;;44.95;26.58;;;;;;;;;;5126157;27;20039;-73
2022/12/03 11:42:26;;;;;;;44.97;27.75;;;;;;;;;;5134545;27;20095;-74
2022/12/03 11:45:04;;;;;;;45.72;28.17;;;;;;;;;;5123773;27;20043;-73
2022/12/03 11:47:33;;;;;;;47.20;28.30;;;;;;;;;;5129866;27;20043;-74
2022/12/03 11:49:59;;;;;;;48.72;27.15;;;;;;;;;;5133322;27;20559;-73
2022/12/03 11:52:27;;;;;;;44.58;27.50;;;;;;;;;;5104041;27;20051;-73
2022/12/03 11:55:14;;;;;;;47.92;29.05;;;;;;;;;;5123354;27;20043;-73
2022/12/03 11:57:42;;;;;;;45.90;27.27;;;;;;;;;;5114268;27;20051;-73
2022/12/03 12:00:13;;;;;;;44.33;25.38;;;;;;;;;;5133480;27;20062;-74
2022/12/03 12:02:39;;;;;;;50.67;29.42;;;;;;;;;;5113676;28;20085;-73
2022/12/03 12:05:16;;;;;;;43.70;27.45;;;;;;;;;;5125130;27;20125;-73
2022/12/03 12:07:44;;;;;;;46.88;27.90;;;;;;;;;;5129746;27;20062;-74
2022/12/03 12:10:11;;;;;;;47.88;29.45;;;;;;;;;;5130914;27;20047;-72
2022/12/03 12:12:52;;;;;;;49.28;28.00;;;;;;;;;;5084043;27;20485;-73
2022/12/03 12:15:36;;;;;;;48.95;30.02;;;;;;;;;;5120571;27;20046;-73
2022/12/03 12:18:21;;;;;;;52.53;30.88;;;;;;;;;;5127472;27;20050;-73
2022/12/03 12:20:47;;;;;;;47.53;29.50;;;;;;;;;;5120465;27;20122;-73
2022/12/03 12:23:27;;;;;;;48.03;29.20;;;;;;;;;;5128785;27;20036;-73
2022/12/03 12:26:05;;;;;;;48.45;28.77;;;;;;;;;;5129239;27;20490;-73
2022/12/03 12:28:31;;;;;;;48.63;29.10;;;;;;;;;;5116827;27;20051;-73
2022/12/03 12:30:57;;;;;;;47.40;30.17;;;;;;;;;;5132945;27;20050;-73
2022/12/03 12:33:24;;;;;;;49.85;30.13;;;;;;;;;;5133453;27;20050;-73
2022/12/03 12:35:51;;;;;;;48.42;29.48;;;;;;;;;;5131934;27;20509;-73
2022/12/03 12:38:18;;;;;;;50.85;30.83;;;;;;;;;;5124118;27;20039;-73
2022/12/03 12:40:47;;;;;;;49.22;28.45;;;;;;;;;;5115845;27;20044;-73
2022/12/03 12:43:22;;;;;;;44.65;25.95;;;;;;;;;;5112014;27;20167;-73
2022/12/03 12:45:48;;;;;;;49.45;31.70;;;;;;;;;;5131127;27;20068;-73
2022/12/03 12:48:23;;;;;;;47.67;27.77;;;;;;;;;;5127661;27;20071;-73
2022/12/03 12:50:58;;;;;;;50.65;30.20;;;;;;;;;;5129272;27;20401;-73
2022/12/03 12:53:26;;;;;;;50.55;29.45;;;;;;;;;;5116287;27;20047;-73
2022/12/03 12:55:56;;;;;;;59.78;30.30;;;;;;;;;;5113017;28;20111;-73
2022/12/03 12:58:25;;;;;;;47.75;28.10;;;;;;;;;;5120294;27;20039;-73
2022/12/03 13:00:53;;;;;;;47.17;28.05;;;;;;;;;;5132720;27;20426;-73
2022/12/03 13:03:20;;;;;;;49.70;29.30;;;;;;;;;;5132693;27;20058;-73
2022/12/03 13:05:47;;;;;;;52.55;32.08;;;;;;;;;;5130758;27;20482;-73
2022/12/03 13:08:33;;;;;;;47.20;27.67;;;;;;;;;;5132694;27;20035;-73
2022/12/03 13:11:00;;;;;;;54.22;31.77;;;;;;;;;;5113813;27;20047;-73
2022/12/03 13:13:38;;;;;;;47.03;28.25;;;;;;;;;;5133220;27;20338;-73
2022/12/03 13:16:15;;;;;;;48.15;29.52;;;;;;;;;;5129390;27;20168;-73
2022/12/03 13:18:46;;;;;;;47.42;29.33;;;;;;;;;;5133463;27;20043;-73
2022/12/03 13:21:14;;;;;;;46.83;28.27;;;;;;;;;;5128547;27;20066;-73
2022/12/03 13:23:41;;;;;;;45.08;24.20;;;;;;;;;;5124274;28;20032;-73
2022/12/03 13:26:22;;;;;;;46.80;27.25;;;;;;;;;;5112431;28;20050;-73
2022/12/03 13:28:48;;;;;;;42.92;25.60;;;;;;;;;;5121016;28;20051;-73
2022/12/03 13:31:21;;;;;;;44.50;26.20;;;;;;;;;;5115945;28;20482;-73
2022/12/03 13:33:47;;;;;;;46.50;25.77;;;;;;;;;;5120142;28;20392;-73
2022/12/03 13:36:15;;;;;;;44.65;26.08;;;;;;;;;;5099476;28;20092;-73
2022/12/03 13:38:41;;;;;;;45.03;26.40;;;;;;;;;;5118995;28;20040;-73
2022/12/03 13:42:37;;;;;;;39.97;24.10;;;;;;;;;;5114884;28;20040;-73
2022/12/03 13:44:02;;;;;;;41.95;26.17;;;;;;;;;;5117481;28;20051;-73
2022/12/03 13:46:31;;;;;;;40.20;23.52;;;;;;;;;;5118651;28;20054;-73
2022/12/03 13:48:57;;;;;;;43.00;25.35;;;;;;;;;;5125980;28;20043;-72
2022/12/03 13:51:25;;;;;;;42.65;24.52;;;;;;;;;;5125339;28;20120;-73
2022/12/03 13:53:51;;;;;;;46.63;27.40;;;;;;;;;;5124308;28;20039;-72
2022/12/03 13:56:22;;;;;;;44.70;28.00;;;;;;;;;;5125673;28;20039;-72
2022/12/03 13:58:48;;;;;;;42.33;25.73;;;;;;;;;;5121800;28;20055;-73
2022/12/03 14:01:14;;;;;;;42.15;23.92;;;;;;;;;;5119010;28;20521;-73
2022/12/03 14:03:40;;;;;;;41.55;24.58;;;;;;;;;;5122878;28;20612;-73
2022/12/03 14:06:06;;;;;;;44.47;26.65;;;;;;;;;;5119347;28;20521;-73
2022/12/03 14:08:32;;;;;;;46.08;25.90;;;;;;;;;;5122636;28;20032;-73
2022/12/03 14:10:58;;;;;;;47.28;27.42;;;;;;;;;;5123390;28;20043;-73
2022/12/03 14:13:24;;;;;;;41.28;25.80;;;;;;;;;;5123720;28;20454;-73
2022/12/03 14:15:50;;;;;;;46.05;26.92;;;;;;;;;;5123379;28;20039;-73
2022/12/03 14:18:16;;;;;;;43.60;23.95;;;;;;;;;;5105880;28;20048;-75
2022/12/03 14:20:42;;;;;;;47.05;27.98;;;;;;;;;;5123823;28;20047;-73
2022/12/03 14:23:08;;;;;;;43.08;26.38;;;;;;;;;;5124667;28;20046;-73
2022/12/03 14:25:34;;;;;;;44.38;28.30;;;;;;;;;;5119638;28;20046;-73
2022/12/03 14:28:00;;;;;;;46.30;26.85;;;;;;;;;;5124938;27;20043;-73
2022/12/03 14:30:26;;;;;;;47.47;28.20;;;;;;;;;;5123110;27;20122;-73
2022/12/03 14:32:52;;;;;;;39.60;24.35;;;;;;;;;;5126076;27;20031;-73
2022/12/03 14:35:18;;;;;;;44.35;26.52;;;;;;;;;;5128925;27;20047;-73
2022/12/03 14:37:45;;;;;;;45.28;26.08;;;;;;;;;;5126476;27;20097;-72
2022/12/03 14:40:11;;;;;;;40.08;23.98;;;;;;;;;;5128991;27;20127;-73